Storm Events Database

Event Details

Event Hail
Magnitude 0.75 in.
State ALABAMA
County/Area PERRY
WFO BMX
Begin Date 04/11/2007 14:04:00 CST-6
Begin Range 2
Begin Azimuth N
Begin Location UNIONTOWN
Begin Lat/Lon 32.48/-87.52
End Date 04/11/2007 14:04:00 CST-6
Deaths Direct/Indirect 0/0 (fatality details below, when available...)
Injuries Direct/Indirect 0/0
Property Damage 0.00K
Crop Damage 0.00K
Episode Narrative Supercell thunderstorms developed in the afternoon and evening hours, producing severe weather that included tornadoes and very large hail.
Event Narrative


All events for this episode:

Location County/Zone St. Date Time T.Z. Type Mag Dth Inj PrD CrD
Totals: 0 1 183.00K 0.00K
BEAR CREEK MARION CO. AL 04/11/2007 13:00 CST-6 Hail 0.75 in. 0 0 0.00K 0.00K
TWIN MARION CO. AL 04/11/2007 13:00 CST-6 Hail 0.75 in. 0 0 0.00K 0.00K
GUIN MARION CO. AL 04/11/2007 13:05 CST-6 Hail 1.75 in. 0 0 0.00K 0.00K
HIGHTOGY LAMAR CO. AL 04/11/2007 13:17 CST-6 Hail 0.75 in. 0 0 0.00K 0.00K
BELMONT SUMTER CO. AL 04/11/2007 13:30 CST-6 Hail 0.88 in. 0 0 0.00K 0.00K
SUMMERFIELD DALLAS CO. AL 04/11/2007 13:30 CST-6 Hail 1.75 in. 0 0 0.00K 0.00K
DEMOPOLIS MARENGO CO. AL 04/11/2007 13:40 CST-6 Hail 1.00 in. 0 0 0.00K 0.00K
DEMOPOLIS MARENGO CO. AL 04/11/2007 13:45 CST-6 Thunderstorm Wind 50 kts. EG 0 0 2.00K 0.00K
GALLION HALE CO. AL 04/11/2007 13:55 CST-6 Hail 1.75 in. 0 0 0.00K 0.00K
DEMOPOLIS MARENGO CO. AL 04/11/2007 13:55 CST-6 Hail 1.75 in. 0 0 0.00K 0.00K
MERTZ BIBB CO. AL 04/11/2007 13:56 CST-6 Hail 0.75 in. 0 0 0.00K 0.00K
UNIONTOWN PERRY CO. AL 04/11/2007 14:04 CST-6 Hail 0.75 in. 0 0 0.00K 0.00K
SAYRE JEFFERSON CO. AL 04/11/2007 14:14 CST-6 Tornado EF1 0 0 20.00K 0.00K
BRENT BIBB CO. AL 04/11/2007 14:25 CST-6 Hail 1.75 in. 0 0 0.00K 0.00K
PINSON JEFFERSON CO. AL 04/11/2007 14:35 CST-6 Funnel Cloud 0 0 0.00K 0.00K
CENTREVILLE BIBB CO. AL 04/11/2007 14:37 CST-6 Hail 1.75 in. 0 0 0.00K 0.00K
RANDOLPH BIBB CO. AL 04/11/2007 14:47 CST-6 Tornado EF1 0 0 10.00K 0.00K
HUBBARD CHILTON CO. AL 04/11/2007 14:49 CST-6 Tornado EF0 0 0 1.00K 0.00K
JONES AUTAUGA CO. AL 04/11/2007 14:55 CST-6 Hail 1.00 in. 0 0 0.00K 0.00K
WARRIOR JEFFERSON CO. AL 04/11/2007 15:00 CST-6 Thunderstorm Wind 50 kts. EG 0 0 5.00K 0.00K
JONES AUTAUGA CO. AL 04/11/2007 15:16 CST-6 Hail 1.75 in. 0 0 0.00K 0.00K
PINE LEVEL AUTAUGA CO. AL 04/11/2007 15:39 CST-6 Hail 1.00 in. 0 0 0.00K 0.00K
MILLBROOK ELMORE CO. AL 04/11/2007 15:47 CST-6 Hail 1.25 in. 0 0 0.00K 0.00K
COOSADA ELMORE CO. AL 04/11/2007 15:50 CST-6 Hail 1.00 in. 0 0 0.00K 0.00K
WETUMPKA ELMORE CO. AL 04/11/2007 15:51 CST-6 Hail 2.75 in. 0 0 0.00K 0.00K
MILLBROOK ELMORE CO. AL 04/11/2007 15:58 CST-6 Hail 2.75 in. 0 0 0.00K 0.00K
WETUMPKA ELMORE CO. AL 04/11/2007 15:58 CST-6 Funnel Cloud 0 0 0.00K 0.00K
NIXBURG COOSA CO. AL 04/11/2007 16:00 CST-6 Hail 1.75 in. 0 0 0.00K 0.00K
MILLBROOK ELMORE CO. AL 04/11/2007 16:00 CST-6 Lightning 0 1 0.00K 0.00K
MILLBROOK ELMORE CO. AL 04/11/2007 16:00 CST-6 Hail 1.75 in. 0 0 5.00K 0.00K
ALEXANDER CITY TALLAPOOSA CO. AL 04/11/2007 16:04 CST-6 Hail 1.00 in. 0 0 0.00K 0.00K
WETUMPKA ELMORE CO. AL 04/11/2007 16:05 CST-6 Tornado EF0 0 0 5.00K 0.00K
ALEXANDER CITY TALLAPOOSA CO. AL 04/11/2007 16:15 CST-6 Hail 1.75 in. 0 0 0.00K 0.00K
DADEVILLE TALLAPOOSA CO. AL 04/11/2007 16:18 CST-6 Tornado EF1 0 0 20.00K 0.00K
TALLASSEE ELMORE CO. AL 04/11/2007 16:26 CST-6 Hail 2.75 in. 0 0 0.00K 0.00K
LAFAYETTE CHAMBERS CO. AL 04/11/2007 16:53 CST-6 Hail 0.75 in. 0 0 0.00K 0.00K
LITTLE TEXAS MACON CO. AL 04/11/2007 16:54 CST-6 Tornado EF1 0 0 10.00K 0.00K
UCHEE RUSSELL CO. AL 04/11/2007 17:13 CST-6 Tornado EF1 0 0 5.00K 0.00K
HURTSBORO RUSSELL CO. AL 04/11/2007 17:28 CST-6 Hail 2.75 in. 0 0 0.00K 0.00K
SEALE RUSSELL CO. AL 04/11/2007 17:39 CST-6 Funnel Cloud 0 0 0.00K 0.00K
SEALE RUSSELL CO. AL 04/11/2007 17:48 CST-6 Hail 4.00 in. 0 0 100.00K 0.00K
SMITHS STATION LEE CO. AL 04/11/2007 17:58 CST-6 Funnel Cloud 0 0 0.00K 0.00K
CLANTON CHILTON CO. AL 04/11/2007 18:15 CST-6 Hail 0.88 in. 0 0 0.00K 0.00K
LAKE MITCHELL COOSA CO. AL 04/11/2007 18:15 CST-6 Hail 0.88 in. 0 0 0.00K 0.00K
Totals: 0 1 183.00K 0.00K